sensor_id;sensor_type;location;lat;lon;timestamp;P1;durP1;ratioP1;P2;durP2;ratioP2
36259;SDS011;22296;50.824;5.644;2023-02-01T00:00:54;3.90;;;1.20;;
36259;SDS011;22296;50.824;5.644;2023-02-01T00:03:21;3.50;;;1.20;;
36259;SDS011;22296;50.824;5.644;2023-02-01T00:05:55;2.90;;;1.30;;
36259;SDS011;22296;50.824;5.644;2023-02-01T00:08:23;2.10;;;1.23;;
36259;SDS011;22296;50.824;5.644;2023-02-01T00:11:00;2.55;;;1.35;;
36259;SDS011;22296;50.824;5.644;2023-02-01T00:13:30;2.50;;;1.30;;
36259;SDS011;22296;50.824;5.644;2023-02-01T00:21:41;2.47;;;1.30;;
36259;SDS011;22296;50.824;5.644;2023-02-01T00:24:09;2.45;;;1.33;;
36259;SDS011;22296;50.824;5.644;2023-02-01T00:26:37;4.35;;;1.55;;
36259;SDS011;22296;50.824;5.644;2023-02-01T00:29:09;3.85;;;1.40;;
36259;SDS011;22296;50.824;5.644;2023-02-01T00:31:40;2.80;;;1.20;;
36259;SDS011;22296;50.824;5.644;2023-02-01T00:34:11;1.75;;;1.27;;
36259;SDS011;22296;50.824;5.644;2023-02-01T00:36:40;2.05;;;1.40;;
36259;SDS011;22296;50.824;5.644;2023-02-01T00:39:09;2.17;;;1.40;;
36259;SDS011;22296;50.824;5.644;2023-02-01T00:41:36;2.78;;;1.42;;
36259;SDS011;22296;50.824;5.644;2023-02-01T00:44:03;3.80;;;1.38;;
36259;SDS011;22296;50.824;5.644;2023-02-01T00:46:30;2.05;;;1.30;;
36259;SDS011;22296;50.824;5.644;2023-02-01T00:48:57;3.38;;;1.30;;
36259;SDS011;22296;50.824;5.644;2023-02-01T00:51:25;2.80;;;1.30;;
36259;SDS011;22296;50.824;5.644;2023-02-01T00:53:54;3.10;;;1.50;;
36259;SDS011;22296;50.824;5.644;2023-02-01T00:56:24;2.40;;;1.30;;
36259;SDS011;22296;50.824;5.644;2023-02-01T00:58:51;2.53;;;1.40;;
36259;SDS011;22296;50.824;5.644;2023-02-01T01:01:21;2.47;;;1.42;;
36259;SDS011;22296;50.824;5.644;2023-02-01T01:03:51;2.38;;;1.15;;
36259;SDS011;22296;50.824;5.644;2023-02-01T01:06:24;2.35;;;1.25;;
36259;SDS011;22296;50.824;5.644;2023-02-01T01:08:53;1.63;;;1.27;;
36259;SDS011;22296;50.824;5.644;2023-02-01T01:11:23;2.40;;;1.40;;
36259;SDS011;22296;50.824;5.644;2023-02-01T01:13:51;2.28;;;1.25;;
36259;SDS011;22296;50.824;5.644;2023-02-01T01:16:20;3.00;;;1.30;;
36259;SDS011;22296;50.824;5.644;2023-02-01T01:18:48;2.80;;;1.65;;
36259;SDS011;22296;50.824;5.644;2023-02-01T01:21:15;2.00;;;1.30;;
36259;SDS011;22296;50.824;5.644;2023-02-01T01:23:43;2.13;;;1.20;;
36259;SDS011;22296;50.824;5.644;2023-02-01T01:26:15;2.30;;;1.23;;
36259;SDS011;22296;50.824;5.644;2023-02-01T01:28:44;2.08;;;1.17;;
36259;SDS011;22296;50.824;5.644;2023-02-01T01:31:11;1.95;;;1.33;;
36259;SDS011;22296;50.824;5.644;2023-02-01T01:33:43;1.83;;;1.20;;
36259;SDS011;22296;50.824;5.644;2023-02-01T01:36:11;2.75;;;1.42;;
36259;SDS011;22296;50.824;5.644;2023-02-01T01:38:39;2.53;;;1.27;;
36259;SDS011;22296;50.824;5.644;2023-02-01T01:41:07;1.93;;;1.30;;
36259;SDS011;22296;50.824;5.644;2023-02-01T01:46:34;1.45;;;0.95;;
36259;SDS011;22296;50.824;5.644;2023-02-01T01:51:32;2.22;;;1.20;;
36259;SDS011;22296;50.824;5.644;2023-02-01T01:54:17;2.45;;;1.50;;
36259;SDS011;22296;50.824;5.644;2023-02-01T01:56:48;2.95;;;1.40;;
36259;SDS011;22296;50.824;5.644;2023-02-01T01:59:20;3.13;;;1.40;;
36259;SDS011;22296;50.824;5.644;2023-02-01T02:01:50;2.47;;;1.30;;
36259;SDS011;22296;50.824;5.644;2023-02-01T02:04:18;3.47;;;1.60;;
36259;SDS011;22296;50.824;5.644;2023-02-01T02:06:54;4.40;;;1.60;;
36259;SDS011;22296;50.824;5.644;2023-02-01T02:09:27;2.80;;;1.23;;
36259;SDS011;22296;50.824;5.644;2023-02-01T02:11:53;3.00;;;1.50;;
36259;SDS011;22296;50.824;5.644;2023-02-01T02:14:21;1.85;;;1.45;;
36259;SDS011;22296;50.824;5.644;2023-02-01T02:19:38;3.33;;;1.55;;
36259;SDS011;22296;50.824;5.644;2023-02-01T02:41:39;3.10;;;1.42;;
36259;SDS011;22296;50.824;5.644;2023-02-01T02:47:28;3.05;;;1.88;;
36259;SDS011;22296;50.824;5.644;2023-02-01T02:53:18;2.42;;;1.45;;
36259;SDS011;22296;50.824;5.644;2023-02-01T02:56:24;2.00;;;1.38;;
36259;SDS011;22296;50.824;5.644;2023-02-01T02:59:12;3.63;;;2.00;;
36259;SDS011;22296;50.824;5.644;2023-02-01T03:02:02;2.28;;;1.50;;
36259;SDS011;22296;50.824;5.644;2023-02-01T03:04:51;4.43;;;1.67;;
36259;SDS011;22296;50.824;5.644;2023-02-01T03:10:13;2.67;;;1.50;;
36259;SDS011;22296;50.824;5.644;2023-02-01T03:12:52;6.00;;;1.85;;
36259;SDS011;22296;50.824;5.644;2023-02-01T03:15:29;3.65;;;1.70;;
36259;SDS011;22296;50.824;5.644;2023-02-01T03:18:19;3.40;;;1.90;;
36259;SDS011;22296;50.824;5.644;2023-02-01T03:20:54;3.70;;;1.45;;
36259;SDS011;22296;50.824;5.644;2023-02-01T03:23:23;2.30;;;1.60;;
36259;SDS011;22296;50.824;5.644;2023-02-01T03:25:56;3.05;;;1.80;;
36259;SDS011;22296;50.824;5.644;2023-02-01T03:28:25;3.70;;;1.73;;
36259;SDS011;22296;50.824;5.644;2023-02-01T03:30:57;2.75;;;1.60;;
36259;SDS011;22296;50.824;5.644;2023-02-01T03:33:25;3.70;;;1.63;;
36259;SDS011;22296;50.824;5.644;2023-02-01T03:39:07;4.85;;;1.50;;
36259;SDS011;22296;50.824;5.644;2023-02-01T03:41:42;4.13;;;1.75;;
36259;SDS011;22296;50.824;5.644;2023-02-01T03:44:17;3.50;;;1.50;;
36259;SDS011;22296;50.824;5.644;2023-02-01T03:46:53;4.60;;;1.55;;
36259;SDS011;22296;50.824;5.644;2023-02-01T03:49:26;3.10;;;1.50;;
36259;SDS011;22296;50.824;5.644;2023-02-01T03:51:56;3.55;;;1.90;;
36259;SDS011;22296;50.824;5.644;2023-02-01T03:54:26;3.38;;;1.77;;
36259;SDS011;22296;50.824;5.644;2023-02-01T03:56:55;2.78;;;1.60;;
36259;SDS011;22296;50.824;5.644;2023-02-01T03:59:25;3.15;;;1.63;;
36259;SDS011;22296;50.824;5.644;2023-02-01T04:01:52;3.50;;;1.67;;
36259;SDS011;22296;50.824;5.644;2023-02-01T04:04:19;3.92;;;1.50;;
36259;SDS011;22296;50.824;5.644;2023-02-01T04:06:50;3.33;;;1.70;;
36259;SDS011;22296;50.824;5.644;2023-02-01T04:09:17;4.15;;;1.70;;
36259;SDS011;22296;50.824;5.644;2023-02-01T04:11:44;3.67;;;1.70;;
36259;SDS011;22296;50.824;5.644;2023-02-01T04:14:10;5.78;;;2.05;;
36259;SDS011;22296;50.824;5.644;2023-02-01T04:16:37;3.92;;;1.67;;
36259;SDS011;22296;50.824;5.644;2023-02-01T04:19:04;4.50;;;1.55;;
36259;SDS011;22296;50.824;5.644;2023-02-01T04:21:31;4.85;;;1.65;;
36259;SDS011;22296;50.824;5.644;2023-02-01T04:23:58;4.35;;;1.80;;
36259;SDS011;22296;50.824;5.644;2023-02-01T04:26:25;4.15;;;1.63;;
36259;SDS011;22296;50.824;5.644;2023-02-01T04:28:52;6.25;;;2.38;;
36259;SDS011;22296;50.824;5.644;2023-02-01T04:31:19;3.60;;;1.90;;
36259;SDS011;22296;50.824;5.644;2023-02-01T04:33:52;3.08;;;1.58;;
36259;SDS011;22296;50.824;5.644;2023-02-01T04:36:20;5.30;;;1.83;;
36259;SDS011;22296;50.824;5.644;2023-02-01T04:38:49;2.53;;;1.67;;
36259;SDS011;22296;50.824;5.644;2023-02-01T04:41:16;4.22;;;1.98;;
36259;SDS011;22296;50.824;5.644;2023-02-01T04:43:49;4.03;;;1.90;;
36259;SDS011;22296;50.824;5.644;2023-02-01T04:46:17;4.43;;;1.98;;
36259;SDS011;22296;50.824;5.644;2023-02-01T04:48:44;3.35;;;2.05;;
36259;SDS011;22296;50.824;5.644;2023-02-01T04:51:11;4.45;;;2.00;;
36259;SDS011;22296;50.824;5.644;2023-02-01T04:53:38;2.17;;;1.52;;
36259;SDS011;22296;50.824;5.644;2023-02-01T04:56:05;3.15;;;1.90;;
36259;SDS011;22296;50.824;5.644;2023-02-01T04:58:32;5.55;;;2.22;;
36259;SDS011;22296;50.824;5.644;2023-02-01T05:01:01;4.20;;;1.90;;
36259;SDS011;22296;50.824;5.644;2023-02-01T05:03:33;5.50;;;2.05;;
36259;SDS011;22296;50.824;5.644;2023-02-01T05:06:01;4.53;;;2.00;;
36259;SDS011;22296;50.824;5.644;2023-02-01T05:08:31;5.95;;;2.28;;
36259;SDS011;22296;50.824;5.644;2023-02-01T05:10:58;4.72;;;2.40;;
36259;SDS011;22296;50.824;5.644;2023-02-01T05:13:25;5.22;;;2.35;;
36259;SDS011;22296;50.824;5.644;2023-02-01T05:16:10;4.45;;;2.58;;
36259;SDS011;22296;50.824;5.644;2023-02-01T05:18:37;3.97;;;2.30;;
36259;SDS011;22296;50.824;5.644;2023-02-01T05:21:04;4.93;;;2.63;;
36259;SDS011;22296;50.824;5.644;2023-02-01T05:23:31;5.00;;;2.35;;
36259;SDS011;22296;50.824;5.644;2023-02-01T05:26:01;4.72;;;2.80;;
36259;SDS011;22296;50.824;5.644;2023-02-01T05:28:28;5.90;;;2.83;;
36259;SDS011;22296;50.824;5.644;2023-02-01T05:30:55;5.50;;;3.15;;
36259;SDS011;22296;50.824;5.644;2023-02-01T05:33:22;4.90;;;2.60;;
36259;SDS011;22296;50.824;5.644;2023-02-01T05:35:48;4.95;;;2.85;;
36259;SDS011;22296;50.824;5.644;2023-02-01T05:38:16;5.35;;;2.70;;
36259;SDS011;22296;50.824;5.644;2023-02-01T05:40:43;4.78;;;3.00;;
36259;SDS011;22296;50.824;5.644;2023-02-01T05:43:15;6.85;;;2.80;;
36259;SDS011;22296;50.824;5.644;2023-02-01T05:45:42;6.75;;;2.80;;
36259;SDS011;22296;50.824;5.644;2023-02-01T05:48:09;5.63;;;2.85;;
36259;SDS011;22296;50.824;5.644;2023-02-01T05:50:36;6.18;;;3.35;;
36259;SDS011;22296;50.824;5.644;2023-02-01T05:53:07;7.95;;;2.85;;
36259;SDS011;22296;50.824;5.644;2023-02-01T05:55:34;7.10;;;3.00;;
36259;SDS011;22296;50.824;5.644;2023-02-01T05:58:02;10.15;;;3.47;;
36259;SDS011;22296;50.824;5.644;2023-02-01T06:00:30;7.35;;;3.17;;
36259;SDS011;22296;50.824;5.644;2023-02-01T06:02:57;6.38;;;3.30;;
36259;SDS011;22296;50.824;5.644;2023-02-01T06:05:24;7.97;;;3.00;;
36259;SDS011;22296;50.824;5.644;2023-02-01T06:07:51;7.57;;;2.90;;
36259;SDS011;22296;50.824;5.644;2023-02-01T06:10:18;7.20;;;2.88;;
36259;SDS011;22296;50.824;5.644;2023-02-01T06:12:45;5.90;;;2.88;;
36259;SDS011;22296;50.824;5.644;2023-02-01T06:15:13;6.80;;;2.70;;
36259;SDS011;22296;50.824;5.644;2023-02-01T06:17:44;7.63;;;2.88;;
36259;SDS011;22296;50.824;5.644;2023-02-01T06:20:12;7.15;;;2.97;;
36259;SDS011;22296;50.824;5.644;2023-02-01T06:22:41;5.03;;;3.03;;
36259;SDS011;22296;50.824;5.644;2023-02-01T06:25:08;7.22;;;2.75;;
36259;SDS011;22296;50.824;5.644;2023-02-01T06:27:36;9.77;;;3.25;;
36259;SDS011;22296;50.824;5.644;2023-02-01T06:30:03;8.35;;;2.53;;
36259;SDS011;22296;50.824;5.644;2023-02-01T06:35:21;5.53;;;2.75;;
36259;SDS011;22296;50.824;5.644;2023-02-01T06:37:47;5.95;;;2.83;;
36259;SDS011;22296;50.824;5.644;2023-02-01T06:40:14;8.60;;;2.70;;
36259;SDS011;22296;50.824;5.644;2023-02-01T06:42:41;7.88;;;2.72;;
36259;SDS011;22296;50.824;5.644;2023-02-01T06:45:08;4.63;;;2.42;;
36259;SDS011;22296;50.824;5.644;2023-02-01T06:47:35;6.20;;;2.30;;
36259;SDS011;22296;50.824;5.644;2023-02-01T06:50:02;8.23;;;2.58;;
36259;SDS011;22296;50.824;5.644;2023-02-01T06:52:29;5.47;;;2.42;;
36259;SDS011;22296;50.824;5.644;2023-02-01T06:54:56;5.18;;;2.28;;
36259;SDS011;22296;50.824;5.644;2023-02-01T06:57:23;6.03;;;2.90;;
36259;SDS011;22296;50.824;5.644;2023-02-01T06:59:49;5.68;;;2.40;;
36259;SDS011;22296;50.824;5.644;2023-02-01T07:02:19;6.35;;;2.20;;
36259;SDS011;22296;50.824;5.644;2023-02-01T07:04:46;6.55;;;2.58;;
36259;SDS011;22296;50.824;5.644;2023-02-01T07:07:16;5.88;;;2.60;;
36259;SDS011;22296;50.824;5.644;2023-02-01T07:09:43;4.82;;;2.47;;
36259;SDS011;22296;50.824;5.644;2023-02-01T07:12:09;8.32;;;2.60;;
36259;SDS011;22296;50.824;5.644;2023-02-01T07:14:36;7.03;;;2.30;;
36259;SDS011;22296;50.824;5.644;2023-02-01T07:17:03;4.55;;;2.45;;
36259;SDS011;22296;50.824;5.644;2023-02-01T07:19:32;6.53;;;2.08;;
36259;SDS011;22296;50.824;5.644;2023-02-01T07:21:59;5.88;;;2.60;;
36259;SDS011;22296;50.824;5.644;2023-02-01T07:24:26;6.65;;;2.47;;
36259;SDS011;22296;50.824;5.644;2023-02-01T07:26:52;5.88;;;2.63;;
36259;SDS011;22296;50.824;5.644;2023-02-01T07:29:19;5.07;;;2.45;;
36259;SDS011;22296;50.824;5.644;2023-02-01T07:31:47;7.55;;;2.58;;
36259;SDS011;22296;50.824;5.644;2023-02-01T07:34:13;8.05;;;2.65;;
36259;SDS011;22296;50.824;5.644;2023-02-01T07:36:40;6.30;;;2.67;;
36259;SDS011;22296;50.824;5.644;2023-02-01T07:39:08;6.32;;;2.35;;
36259;SDS011;22296;50.824;5.644;2023-02-01T07:41:34;9.25;;;2.22;;
36259;SDS011;22296;50.824;5.644;2023-02-01T07:44:01;6.05;;;2.38;;
36259;SDS011;22296;50.824;5.644;2023-02-01T07:46:28;9.85;;;2.33;;
36259;SDS011;22296;50.824;5.644;2023-02-01T07:48:55;7.07;;;2.65;;
36259;SDS011;22296;50.824;5.644;2023-02-01T07:51:21;6.95;;;2.05;;
36259;SDS011;22296;50.824;5.644;2023-02-01T07:54:07;4.95;;;2.25;;
36259;SDS011;22296;50.824;5.644;2023-02-01T07:56:34;5.18;;;2.13;;
36259;SDS011;22296;50.824;5.644;2023-02-01T07:59:01;4.75;;;2.22;;
36259;SDS011;22296;50.824;5.644;2023-02-01T08:01:28;8.32;;;2.03;;
36259;SDS011;22296;50.824;5.644;2023-02-01T08:06:30;4.25;;;1.92;;
36259;SDS011;22296;50.824;5.644;2023-02-01T08:08:58;5.97;;;2.13;;
36259;SDS011;22296;50.824;5.644;2023-02-01T08:11:25;6.00;;;2.50;;
36259;SDS011;22296;50.824;5.644;2023-02-01T08:13:52;5.75;;;2.42;;
36259;SDS011;22296;50.824;5.644;2023-02-01T08:16:21;5.07;;;2.30;;
36259;SDS011;22296;50.824;5.644;2023-02-01T08:18:49;6.63;;;2.47;;
36259;SDS011;22296;50.824;5.644;2023-02-01T08:21:21;5.93;;;2.15;;
36259;SDS011;22296;50.824;5.644;2023-02-01T08:23:50;7.38;;;2.50;;
36259;SDS011;22296;50.824;5.644;2023-02-01T08:26:18;4.18;;;2.15;;
36259;SDS011;22296;50.824;5.644;2023-02-01T08:28:49;4.72;;;2.20;;
36259;SDS011;22296;50.824;5.644;2023-02-01T08:31:19;4.53;;;2.30;;
36259;SDS011;22296;50.824;5.644;2023-02-01T08:36:16;4.72;;;1.88;;
36259;SDS011;22296;50.824;5.644;2023-02-01T08:38:43;7.07;;;2.20;;
36259;SDS011;22296;50.824;5.644;2023-02-01T08:41:13;5.22;;;2.35;;
36259;SDS011;22296;50.824;5.644;2023-02-01T08:43:41;12.15;;;2.80;;
36259;SDS011;22296;50.824;5.644;2023-02-01T08:46:09;8.13;;;2.58;;
36259;SDS011;22296;50.824;5.644;2023-02-01T08:48:36;6.88;;;2.05;;
36259;SDS011;22296;50.824;5.644;2023-02-01T08:51:04;6.50;;;1.98;;
36259;SDS011;22296;50.824;5.644;2023-02-01T08:53:34;8.25;;;2.55;;
36259;SDS011;22296;50.824;5.644;2023-02-01T08:56:00;6.90;;;2.08;;
36259;SDS011;22296;50.824;5.644;2023-02-01T08:58:28;4.43;;;1.70;;
36259;SDS011;22296;50.824;5.644;2023-02-01T09:00:54;5.28;;;2.10;;
36259;SDS011;22296;50.824;5.644;2023-02-01T09:03:21;8.07;;;2.17;;
36259;SDS011;22296;50.824;5.644;2023-02-01T09:05:48;4.18;;;1.95;;
36259;SDS011;22296;50.824;5.644;2023-02-01T09:08:15;7.40;;;2.50;;
36259;SDS011;22296;50.824;5.644;2023-02-01T09:10:42;6.22;;;2.13;;
36259;SDS011;22296;50.824;5.644;2023-02-01T09:13:09;4.28;;;1.73;;
36259;SDS011;22296;50.824;5.644;2023-02-01T09:15:37;7.65;;;2.03;;
36259;SDS011;22296;50.824;5.644;2023-02-01T09:18:04;5.95;;;1.95;;
36259;SDS011;22296;50.824;5.644;2023-02-01T09:20:30;6.13;;;2.10;;
36259;SDS011;22296;50.824;5.644;2023-02-01T09:22:57;7.40;;;1.90;;
36259;SDS011;22296;50.824;5.644;2023-02-01T09:25:24;4.63;;;2.08;;
36259;SDS011;22296;50.824;5.644;2023-02-01T09:27:51;5.70;;;2.13;;
36259;SDS011;22296;50.824;5.644;2023-02-01T09:30:18;7.43;;;2.30;;
36259;SDS011;22296;50.824;5.644;2023-02-01T09:32:44;9.65;;;2.33;;
36259;SDS011;22296;50.824;5.644;2023-02-01T09:35:11;3.75;;;1.95;;
36259;SDS011;22296;50.824;5.644;2023-02-01T09:37:38;8.85;;;2.17;;
36259;SDS011;22296;50.824;5.644;2023-02-01T09:40:04;6.72;;;1.95;;
36259;SDS011;22296;50.824;5.644;2023-02-01T09:45:32;4.70;;;2.03;;
36259;SDS011;22296;50.824;5.644;2023-02-01T09:48:38;5.90;;;2.22;;
36259;SDS011;22296;50.824;5.644;2023-02-01T09:51:17;6.82;;;2.22;;
36259;SDS011;22296;50.824;5.644;2023-02-01T09:53:48;8.73;;;2.50;;
36259;SDS011;22296;50.824;5.644;2023-02-01T09:56:47;3.90;;;1.83;;
36259;SDS011;22296;50.824;5.644;2023-02-01T10:02:00;6.75;;;2.20;;
36259;SDS011;22296;50.824;5.644;2023-02-01T10:04:30;5.60;;;1.85;;
36259;SDS011;22296;50.824;5.644;2023-02-01T10:26:10;4.10;;;1.80;;
36259;SDS011;22296;50.824;5.644;2023-02-01T10:28:52;8.30;;;2.08;;
36259;SDS011;22296;50.824;5.644;2023-02-01T10:31:24;5.85;;;2.00;;
36259;SDS011;22296;50.824;5.644;2023-02-01T10:33:57;6.70;;;2.05;;
36259;SDS011;22296;50.824;5.644;2023-02-01T10:36:32;6.35;;;2.00;;
36259;SDS011;22296;50.824;5.644;2023-02-01T10:39:03;5.38;;;2.00;;
36259;SDS011;22296;50.824;5.644;2023-02-01T10:41:38;5.13;;;1.70;;
36259;SDS011;22296;50.824;5.644;2023-02-01T10:44:07;7.68;;;1.90;;
36259;SDS011;22296;50.824;5.644;2023-02-01T10:46:41;6.35;;;2.17;;
36259;SDS011;22296;50.824;5.644;2023-02-01T10:49:12;6.15;;;1.70;;
36259;SDS011;22296;50.824;5.644;2023-02-01T10:54:46;6.47;;;1.90;;
36259;SDS011;22296;50.824;5.644;2023-02-01T10:57:25;4.78;;;2.15;;
36259;SDS011;22296;50.824;5.644;2023-02-01T10:59:54;4.32;;;1.45;;
36259;SDS011;22296;50.824;5.644;2023-02-01T11:05:02;4.50;;;1.65;;
36259;SDS011;22296;50.824;5.644;2023-02-01T11:07:31;5.95;;;1.73;;
36259;SDS011;22296;50.824;5.644;2023-02-01T11:09:58;3.67;;;1.63;;
36259;SDS011;22296;50.824;5.644;2023-02-01T11:17:42;6.07;;;2.00;;
36259;SDS011;22296;50.824;5.644;2023-02-01T11:22:59;4.72;;;1.80;;
36259;SDS011;22296;50.824;5.644;2023-02-01T11:25:26;4.25;;;1.73;;
36259;SDS011;22296;50.824;5.644;2023-02-01T11:27:54;5.93;;;2.00;;
36259;SDS011;22296;50.824;5.644;2023-02-01T11:30:26;4.78;;;1.80;;
36259;SDS011;22296;50.824;5.644;2023-02-01T11:32:54;7.78;;;2.00;;
36259;SDS011;22296;50.824;5.644;2023-02-01T11:35:21;5.82;;;1.95;;
36259;SDS011;22296;50.824;5.644;2023-02-01T11:37:52;5.53;;;1.70;;
36259;SDS011;22296;50.824;5.644;2023-02-01T11:45:30;5.28;;;2.05;;
36259;SDS011;22296;50.824;5.644;2023-02-01T11:48:00;5.70;;;1.77;;
36259;SDS011;22296;50.824;5.644;2023-02-01T11:53:38;6.38;;;1.73;;
36259;SDS011;22296;50.824;5.644;2023-02-01T11:56:31;7.57;;;1.70;;
36259;SDS011;22296;50.824;5.644;2023-02-01T11:59:21;5.75;;;1.60;;
36259;SDS011;22296;50.824;5.644;2023-02-01T12:21:12;5.63;;;2.10;;
36259;SDS011;22296;50.824;5.644;2023-02-01T12:24:26;3.92;;;1.83;;
36259;SDS011;22296;50.824;5.644;2023-02-01T12:27:02;5.40;;;1.60;;
36259;SDS011;22296;50.824;5.644;2023-02-01T12:33:03;5.43;;;1.75;;
36259;SDS011;22296;50.824;5.644;2023-02-01T12:42:23;3.75;;;1.60;;
36259;SDS011;22296;50.824;5.644;2023-02-01T12:44:56;5.20;;;1.70;;
36259;SDS011;22296;50.824;5.644;2023-02-01T12:52:49;3.53;;;1.60;;
36259;SDS011;22296;50.824;5.644;2023-02-01T12:55:24;3.55;;;1.38;;
36259;SDS011;22296;50.824;5.644;2023-02-01T12:58:15;4.28;;;1.60;;
36259;SDS011;22296;50.824;5.644;2023-02-01T13:00:51;3.90;;;1.55;;
36259;SDS011;22296;50.824;5.644;2023-02-01T13:03:35;5.65;;;1.33;;
36259;SDS011;22296;50.824;5.644;2023-02-01T13:06:19;4.05;;;1.35;;
36259;SDS011;22296;50.824;5.644;2023-02-01T13:08:52;2.80;;;1.35;;
36259;SDS011;22296;50.824;5.644;2023-02-01T13:11:22;4.68;;;1.90;;
36259;SDS011;22296;50.824;5.644;2023-02-01T13:17:02;4.90;;;1.38;;
36259;SDS011;22296;50.824;5.644;2023-02-01T13:19:52;6.32;;;1.70;;
36259;SDS011;22296;50.824;5.644;2023-02-01T13:25:04;3.17;;;1.40;;
36259;SDS011;22296;50.824;5.644;2023-02-01T13:27:39;2.85;;;1.40;;
36259;SDS011;22296;50.824;5.644;2023-02-01T13:30:17;4.63;;;1.55;;
36259;SDS011;22296;50.824;5.644;2023-02-01T13:33:18;3.60;;;1.48;;
36259;SDS011;22296;50.824;5.644;2023-02-01T13:41:42;4.03;;;1.30;;
36259;SDS011;22296;50.824;5.644;2023-02-01T13:44:39;3.65;;;1.50;;
36259;SDS011;22296;50.824;5.644;2023-02-01T13:50:04;3.58;;;1.60;;
36259;SDS011;22296;50.824;5.644;2023-02-01T13:52:50;3.35;;;1.30;;
36259;SDS011;22296;50.824;5.644;2023-02-01T13:55:35;3.63;;;1.33;;
36259;SDS011;22296;50.824;5.644;2023-02-01T13:58:15;5.55;;;1.40;;
36259;SDS011;22296;50.824;5.644;2023-02-01T14:11:44;3.55;;;1.40;;
36259;SDS011;22296;50.824;5.644;2023-02-01T14:19:22;3.28;;;1.50;;
36259;SDS011;22296;50.824;5.644;2023-02-01T14:21:52;3.13;;;1.20;;
36259;SDS011;22296;50.824;5.644;2023-02-01T14:24:34;3.80;;;1.42;;
36259;SDS011;22296;50.824;5.644;2023-02-01T14:27:15;3.72;;;1.30;;
36259;SDS011;22296;50.824;5.644;2023-02-01T14:29:53;5.03;;;1.30;;
36259;SDS011;22296;50.824;5.644;2023-02-01T14:32:33;2.53;;;1.30;;
36259;SDS011;22296;50.824;5.644;2023-02-01T14:37:52;2.88;;;1.20;;
36259;SDS011;22296;50.824;5.644;2023-02-01T14:40:26;3.05;;;1.48;;
36259;SDS011;22296;50.824;5.644;2023-02-01T14:42:54;2.67;;;1.40;;
36259;SDS011;22296;50.824;5.644;2023-02-01T14:47:50;2.75;;;1.30;;
36259;SDS011;22296;50.824;5.644;2023-02-01T14:58:06;2.92;;;1.08;;
36259;SDS011;22296;50.824;5.644;2023-02-01T15:01:01;2.30;;;1.10;;
36259;SDS011;22296;50.824;5.644;2023-02-01T15:06:26;1.67;;;1.05;;
36259;SDS011;22296;50.824;5.644;2023-02-01T15:09:04;2.15;;;1.08;;
36259;SDS011;22296;50.824;5.644;2023-02-01T15:11:53;2.53;;;1.15;;
36259;SDS011;22296;50.824;5.644;2023-02-01T15:14:22;2.50;;;1.10;;
36259;SDS011;22296;50.824;5.644;2023-02-01T15:16:49;2.95;;;1.33;;
36259;SDS011;22296;50.824;5.644;2023-02-01T15:19:21;2.45;;;1.15;;
36259;SDS011;22296;50.824;5.644;2023-02-01T15:21:49;3.58;;;1.10;;
36259;SDS011;22296;50.824;5.644;2023-02-01T15:24:22;3.58;;;1.23;;
36259;SDS011;22296;50.824;5.644;2023-02-01T15:26:54;2.83;;;1.33;;
36259;SDS011;22296;50.824;5.644;2023-02-01T15:29:22;1.52;;;1.02;;
36259;SDS011;22296;50.824;5.644;2023-02-01T15:31:55;2.90;;;1.00;;
36259;SDS011;22296;50.824;5.644;2023-02-01T15:34:22;2.13;;;1.20;;
36259;SDS011;22296;50.824;5.644;2023-02-01T15:36:49;2.22;;;1.23;;
36259;SDS011;22296;50.824;5.644;2023-02-01T15:39:28;2.03;;;1.00;;
36259;SDS011;22296;50.824;5.644;2023-02-01T15:41:58;3.38;;;1.05;;
36259;SDS011;22296;50.824;5.644;2023-02-01T15:44:32;3.97;;;1.20;;
36259;SDS011;22296;50.824;5.644;2023-02-01T15:47:05;2.15;;;1.20;;
36259;SDS011;22296;50.824;5.644;2023-02-01T15:49:41;2.92;;;0.95;;
36259;SDS011;22296;50.824;5.644;2023-02-01T15:55:21;1.80;;;1.00;;
36259;SDS011;22296;50.824;5.644;2023-02-01T15:58:17;2.88;;;0.98;;
36259;SDS011;22296;50.824;5.644;2023-02-01T16:00:50;3.42;;;1.10;;
36259;SDS011;22296;50.824;5.644;2023-02-01T16:03:26;1.40;;;0.90;;
36259;SDS011;22296;50.824;5.644;2023-02-01T16:06:04;2.22;;;0.90;;
36259;SDS011;22296;50.824;5.644;2023-02-01T16:08:36;3.03;;;1.10;;
36259;SDS011;22296;50.824;5.644;2023-02-01T16:13:36;3.25;;;1.10;;
36259;SDS011;22296;50.824;5.644;2023-02-01T16:16:03;2.97;;;1.00;;
36259;SDS011;22296;50.824;5.644;2023-02-01T16:18:34;2.40;;;0.90;;
36259;SDS011;22296;50.824;5.644;2023-02-01T16:21:01;4.55;;;1.13;;
36259;SDS011;22296;50.824;5.644;2023-02-01T16:23:28;3.67;;;1.45;;
36259;SDS011;22296;50.824;5.644;2023-02-01T16:25:57;2.58;;;1.27;;
36259;SDS011;22296;50.824;5.644;2023-02-01T16:28:26;4.03;;;1.23;;
36259;SDS011;22296;50.824;5.644;2023-02-01T16:30:53;3.38;;;1.13;;
36259;SDS011;22296;50.824;5.644;2023-02-01T16:33:20;2.28;;;0.90;;
36259;SDS011;22296;50.824;5.644;2023-02-01T16:35:50;2.87;;;1.00;;
36259;SDS011;22296;50.824;5.644;2023-02-01T16:38:18;2.20;;;1.33;;
36259;SDS011;22296;50.824;5.644;2023-02-01T16:40:48;2.42;;;0.95;;
36259;SDS011;22296;50.824;5.644;2023-02-01T16:43:20;3.50;;;1.05;;
36259;SDS011;22296;50.824;5.644;2023-02-01T16:45:49;2.58;;;0.95;;
36259;SDS011;22296;50.824;5.644;2023-02-01T16:48:29;1.95;;;0.80;;
36259;SDS011;22296;50.824;5.644;2023-02-01T16:50:58;2.17;;;1.00;;
36259;SDS011;22296;50.824;5.644;2023-02-01T16:53:28;3.60;;;1.33;;
36259;SDS011;22296;50.824;5.644;2023-02-01T16:56:04;2.28;;;1.10;;
36259;SDS011;22296;50.824;5.644;2023-02-01T16:58:38;2.95;;;1.23;;
36259;SDS011;22296;50.824;5.644;2023-02-01T17:01:07;3.05;;;1.10;;
36259;SDS011;22296;50.824;5.644;2023-02-01T17:03:34;3.33;;;1.00;;
36259;SDS011;22296;50.824;5.644;2023-02-01T17:06:00;3.78;;;1.27;;
36259;SDS011;22296;50.824;5.644;2023-02-01T17:08:29;5.00;;;1.50;;
36259;SDS011;22296;50.824;5.644;2023-02-01T17:11:05;2.42;;;1.05;;
36259;SDS011;22296;50.824;5.644;2023-02-01T17:13:33;3.13;;;1.02;;
36259;SDS011;22296;50.824;5.644;2023-02-01T17:18:59;3.90;;;1.27;;
36259;SDS011;22296;50.824;5.644;2023-02-01T17:21:30;3.45;;;0.90;;
36259;SDS011;22296;50.824;5.644;2023-02-01T17:24:05;3.20;;;0.88;;
36259;SDS011;22296;50.824;5.644;2023-02-01T17:26:32;2.97;;;1.08;;
36259;SDS011;22296;50.824;5.644;2023-02-01T17:28:59;2.92;;;1.20;;
36259;SDS011;22296;50.824;5.644;2023-02-01T17:31:25;3.25;;;1.50;;
36259;SDS011;22296;50.824;5.644;2023-02-01T17:33:54;3.00;;;1.15;;
36259;SDS011;22296;50.824;5.644;2023-02-01T17:36:21;3.42;;;1.10;;
36259;SDS011;22296;50.824;5.644;2023-02-01T17:38:48;2.90;;;1.00;;
36259;SDS011;22296;50.824;5.644;2023-02-01T17:41:30;2.53;;;1.13;;
36259;SDS011;22296;50.824;5.644;2023-02-01T17:43:57;2.30;;;0.98;;
36259;SDS011;22296;50.824;5.644;2023-02-01T17:46:24;1.90;;;0.90;;
36259;SDS011;22296;50.824;5.644;2023-02-01T17:48:54;2.75;;;1.00;;
36259;SDS011;22296;50.824;5.644;2023-02-01T17:51:22;3.75;;;1.10;;
36259;SDS011;22296;50.824;5.644;2023-02-01T17:53:52;3.78;;;1.20;;
36259;SDS011;22296;50.824;5.644;2023-02-01T17:56:21;3.15;;;1.08;;
36259;SDS011;22296;50.824;5.644;2023-02-01T17:58:49;2.97;;;1.00;;
36259;SDS011;22296;50.824;5.644;2023-02-01T18:01:21;2.70;;;0.90;;
36259;SDS011;22296;50.824;5.644;2023-02-01T18:03:49;2.85;;;1.00;;
36259;SDS011;22296;50.824;5.644;2023-02-01T18:06:18;3.22;;;1.13;;
36259;SDS011;22296;50.824;5.644;2023-02-01T18:08:47;2.80;;;1.17;;
36259;SDS011;22296;50.824;5.644;2023-02-01T18:11:15;4.18;;;1.10;;
36259;SDS011;22296;50.824;5.644;2023-02-01T18:13:44;2.20;;;1.10;;
36259;SDS011;22296;50.824;5.644;2023-02-01T18:16:16;2.47;;;0.70;;
36259;SDS011;22296;50.824;5.644;2023-02-01T18:18:47;3.17;;;0.90;;
36259;SDS011;22296;50.824;5.644;2023-02-01T18:21:15;3.97;;;1.00;;